Kendall, MI

5:43 AM EST on December 20, 2014 (GMT -0500)
Kellogg | Change Station
CLOSE
Current Station
Airport
Location: Battle Creek,
Elevation: 951 ft
Nearby Weather Stations

Elev 951 ft 42.31 °N, 85.25 °W | Updated 50 minutes ago

Partly Cloudy
Partly Cloudy
23 °F
Feels Like 23 °F
N
0
Wind Variable Wind from North

Today
High -- | Low -- °F
--% Chance of Precip.
Yesterday
High -- | Low -- °F
Precip. -- in
8:08 AM 5:13 PM
Waning Crescent, 3% visible
Pressure 30.31 in
Visibility 8.0 miles
Clouds Overcast 2300 ft
Dew Point 19 °F
Humidity 85%
Rainfall 0.00 in
Snow Depth Not available.
UV 0 out of 12
Pollen .10 out of 12
Air Quality Not available.
Flu Activity Not available.
METAR KBTL 200953Z 00000KT 8SM OVC023 M05/M07 A3027 RMK AO2 SLP263 T10501072

More Conditions Fewer Conditions

Pressure 30.31 in
Visibility 8.0 miles
Clouds Overcast 2300 ft
Dew Point 19 °F
Humidity 85%
Rainfall 0.00 in
Snow Depth Not available.
UV 0 out of 12
Pollen .10 out of 12
Air Quality Not available.
Flu Activity Not available.
METAR KBTL 200953Z 00000KT 8SM OVC023 M05/M07 A3027 RMK AO2 SLP263 T10501072

More Conditions Fewer Conditions

10-Day Weather Forecast

Almanac

Astronomy

Dec. 20, 2014 Rise Set
Actual Time
Civil Twilight
Nautical Twilight
Astronomical Twilight
Moon
Length of Visible Light
Length of Day
Tomorrow will be .
, % of the Moon is Illuminated

Today's Extremes

State Highs State Lows

Community

WunderPhotos

Upload Photos

1,779,151 photos uploaded!

WunderBlogs® & News

Nearby

Air Quality

  Air Quality AQ Index Pollutant
Not available.

Snow Depth

Station Depth Elevation

Earthquake Activity

City Distance Mag. Time & Date
Minimum magnitude displayed is 2.5.

Coastal Water Temperatures

Place Temperature

Nearby Weather Stations